Ropesville, TX (79358)

7:31 AM CDT on July 25, 2016 (GMT -0500)
BJC Weather Station #1 Ropesville, TX | | Change Station

Elev 3366 ft 33.42 °N, 102.15 °W | Updated 25 seconds ago

Partly Cloudy
Partly Cloudy
70.7 °F
Feels Like 74 °F
N
0.0
Wind Variable Wind from West

Today
High -- | Low -- °F
--% Chance of Precip.
Yesterday
High -- | Low -- °F
Precip. -- in
Pressure 29.93 in
Visibility 10.0 miles
Clouds Few 10000 ft
Few 18000 ft
Heat Index 74 °F
Dew Point 60 °F
Humidity 69%
Rainfall 0.00 in
Snow Depth Not available.
6:56 AM 8:53 PM
Waning Gibbous, 66% visible
METAR KLBB 251153Z 36005KT 10SM FEW100 FEW180 21/16 A3010 RMK AO2 SLP134 T02060156 10267 20206 53010
Pressure 29.93 in
Visibility 10.0 miles
Clouds Few 10000 ft
Few 18000 ft
Heat Index 74 °F
Dew Point 60 °F
Humidity 69%
Rainfall 0.00 in
Snow Depth Not available.
6:56 AM 8:53 PM
Waning Gibbous, 66% visible
METAR KLBB 251153Z 36005KT 10SM FEW100 FEW180 21/16 A3010 RMK AO2 SLP134 T02060156 10267 20206 53010

10-Day Weather Forecast

Almanac

Astronomy

Jul. 25, 2016 Rise Set
Actual Time
Civil Twilight
Nautical Twilight
Astronomical Twilight
Moon
Length of Visible Light
Length of Day
Tomorrow will be .
, % of the Moon is Illuminated

Today's Extremes

State Highs State Lows

Community

WunderPhotos

Upload Photos

1,927,296 photos uploaded!

WunderBlog® & News

Nearby

Air Quality

  Air Quality AQ Index Pollutant
Not available.

Snow Depth

Station Depth Elevation

Earthquake Activity

City Distance Mag. Time & Date
Minimum magnitude displayed is 2.5.

Coastal Water Temperatures

Place Temperature

Stations

Nearby Weather Stations

Station Location Temp. Windchill Dew Point Humidity Wind Precip. Elev Updated Type
                   

Watches & Warnings

There are currently no watches in effect.